Time;durP1;ratioP1;P1;durP2;ratioP2;P2;SDS_P1;SDS_P2;PMS_P1;PMS_P2;Temp;Humidity;BMP_temperature;BMP_pressure;BME280_temperature;BME280_humidity;BME280_pressure;Samples;Min_cycle;Max_cycle;Signal;HPM_P1;HPM_P2
2023/04/15 00:00:36;;;;;;;2.20;1.30;;;9.60;33.00;;;;;;5029817;28;20204;-72
2023/04/15 00:03:01;;;;;;;2.00;1.10;;;9.40;32.90;;;;;;5032288;28;20180;-71
2023/04/15 00:05:30;;;;;;;2.30;1.40;;;9.30;32.70;;;;;;5033624;28;20183;-72
2023/04/15 00:07:56;;;;;;;2.00;1.20;;;9.40;32.90;;;;;;5031015;28;20246;-71
2023/04/15 00:10:22;;;;;;;2.20;1.33;;;9.20;33.20;;;;;;5030202;28;20713;-71
2023/04/15 00:12:48;;;;;;;2.10;1.30;;;9.00;33.20;;;;;;5024266;28;20188;-72
2023/04/15 00:15:14;;;;;;;2.30;1.47;;;8.50;35.40;;;;;;5032811;28;20180;-72
2023/04/15 00:17:39;;;;;;;4.68;1.88;;;8.80;34.20;;;;;;5031906;28;20204;-72
2023/04/15 00:20:06;;;;;;;3.63;1.87;;;9.30;33.50;;;;;;5027311;28;20322;-71
2023/04/15 00:22:31;;;;;;;3.85;1.88;;;9.10;32.60;;;;;;5030954;28;20200;-72
2023/04/15 00:24:57;;;;;;;2.83;1.60;;;9.20;33.60;;;;;;5032471;28;20189;-72
2023/04/15 00:27:23;;;;;;;2.87;1.93;;;9.20;32.60;;;;;;5032020;28;20462;-71
2023/04/15 00:29:48;;;;;;;3.00;1.60;;;9.20;33.00;;;;;;5031244;28;20189;-71
2023/04/15 00:32:14;;;;;;;2.10;1.10;;;9.30;33.80;;;;;;5032392;28;20320;-72
2023/04/15 00:34:40;;;;;;;2.20;1.20;;;9.20;33.50;;;;;;5032376;28;20184;-71
2023/04/15 00:37:06;;;;;;;2.70;1.60;;;9.40;32.20;;;;;;5032699;28;20440;-72
2023/04/15 00:39:31;;;;;;;2.20;1.20;;;9.20;32.70;;;;;;5032095;28;20463;-71
2023/04/15 00:41:57;;;;;;;2.30;1.27;;;8.90;34.00;;;;;;5032322;28;20215;-71
2023/04/15 00:44:23;;;;;;;2.20;1.20;;;8.90;34.30;;;;;;5030318;28;20176;-71
2023/04/15 00:46:50;;;;;;;2.10;1.10;;;8.90;33.00;;;;;;5031857;28;20291;-71
2023/04/15 00:49:18;;;;;;;2.33;1.35;;;9.00;33.10;;;;;;5031694;28;20522;-71
2023/04/15 00:51:43;;;;;;;2.20;1.20;;;8.90;33.90;;;;;;5028066;28;20553;-71
2023/04/15 00:54:09;;;;;;;2.30;1.40;;;8.80;35.00;;;;;;5029288;28;20184;-71
2023/04/15 00:56:37;;;;;;;2.20;1.27;;;8.70;35.20;;;;;;5030269;28;20649;-72
2023/04/15 00:59:02;;;;;;;2.30;1.20;;;8.60;35.00;;;;;;5032254;28;20491;-72
2023/04/15 01:01:28;;;;;;;2.20;1.20;;;8.70;34.30;;;;;;5029930;28;20212;-71
2023/04/15 01:03:57;;;;;;;2.30;1.23;;;8.70;35.20;;;;;;5024833;28;20192;-72
2023/04/15 01:06:23;;;;;;;2.38;1.35;;;8.70;35.80;;;;;;5030811;28;20189;-72
2023/04/15 01:08:48;;;;;;;2.20;1.20;;;8.60;36.30;;;;;;5026263;28;20191;-71
2023/04/15 01:11:15;;;;;;;2.47;1.47;;;8.60;35.50;;;;;;5032553;28;20184;-72
2023/04/15 01:13:41;;;;;;;2.80;1.70;;;8.60;36.40;;;;;;5028645;28;20553;-71
2023/04/15 01:16:08;;;;;;;2.20;1.10;;;8.50;35.80;;;;;;5031946;28;20212;-71
2023/04/15 01:18:35;;;;;;;2.20;1.20;;;8.50;34.90;;;;;;5031354;28;20203;-72
2023/04/15 01:21:03;;;;;;;2.33;1.30;;;8.70;34.00;;;;;;5027104;28;20180;-72
2023/04/15 01:23:30;;;;;;;2.60;1.48;;;8.80;32.90;;;;;;5030459;28;20181;-71
2023/04/15 01:25:56;;;;;;;2.30;1.20;;;8.80;32.30;;;;;;5030892;28;20195;-71
2023/04/15 01:28:21;;;;;;;2.30;1.27;;;8.70;34.00;;;;;;5031219;28;20177;-72
2023/04/15 01:30:47;;;;;;;2.20;1.10;;;8.80;32.80;;;;;;5032110;28;20543;-71
2023/04/15 01:33:13;;;;;;;2.40;1.40;;;8.90;32.40;;;;;;5029803;28;20176;-72
2023/04/15 01:35:39;;;;;;;2.30;1.30;;;8.80;33.90;;;;;;5022326;28;20234;-72
2023/04/15 01:38:07;;;;;;;2.20;1.20;;;8.70;34.60;;;;;;5028939;28;20238;-71
2023/04/15 01:40:33;;;;;;;2.30;1.20;;;8.70;33.20;;;;;;5028717;28;20200;-71
2023/04/15 01:43:00;;;;;;;2.40;1.30;;;8.80;33.50;;;;;;5031008;28;20239;-71
2023/04/15 01:45:26;;;;;;;2.67;1.63;;;8.70;34.30;;;;;;5027884;28;20555;-72
2023/04/15 01:47:52;;;;;;;2.33;1.50;;;8.40;35.80;;;;;;5029013;28;20204;-71
2023/04/15 01:50:19;;;;;;;2.30;1.13;;;8.40;35.50;;;;;;5029931;28;20455;-71
2023/04/15 01:52:45;;;;;;;2.60;1.60;;;8.20;35.60;;;;;;5030107;28;20180;-70
2023/04/15 01:55:12;;;;;;;2.40;1.27;;;8.30;35.80;;;;;;5027554;28;20177;-71
2023/04/15 01:57:38;;;;;;;2.85;1.52;;;8.20;36.10;;;;;;5029272;28;20297;-71
2023/04/15 02:00:06;;;;;;;2.70;1.60;;;8.10;36.10;;;;;;5030031;28;20663;-72
2023/04/15 02:02:32;;;;;;;7.88;3.75;;;8.30;34.50;;;;;;5030039;28;20938;-71
2023/04/15 02:04:58;;;;;;;2.33;1.20;;;8.20;35.80;;;;;;5030987;28;20191;-71
2023/04/15 02:07:24;;;;;;;2.77;1.50;;;8.30;35.00;;;;;;5023244;28;20820;-71
2023/04/15 02:09:49;;;;;;;3.08;1.52;;;8.50;33.90;;;;;;5030594;28;20197;-71
2023/04/15 02:12:15;;;;;;;2.40;1.23;;;8.50;34.10;;;;;;5030721;28;20191;-71
2023/04/15 02:14:40;;;;;;;2.70;1.40;;;8.40;34.50;;;;;;5030020;28;20246;-72
2023/04/15 02:17:07;;;;;;;2.37;1.13;;;8.20;35.40;;;;;;5028077;28;20683;-72
2023/04/15 02:19:36;;;;;;;2.50;1.40;;;8.20;35.30;;;;;;5025806;28;20204;-72
2023/04/15 02:22:01;;;;;;;2.50;1.30;;;8.40;34.40;;;;;;5030777;28;20192;-71
2023/04/15 02:24:29;;;;;;;2.50;1.20;;;8.50;34.10;;;;;;5030480;28;20172;-71
2023/04/15 02:26:55;;;;;;;2.55;1.30;;;8.40;34.60;;;;;;5029255;28;20531;-72
2023/04/15 02:29:22;;;;;;;2.50;1.10;;;8.30;33.50;;;;;;5028934;28;20715;-71
2023/04/15 02:31:47;;;;;;;3.00;1.63;;;8.40;33.20;;;;;;5031379;28;20176;-72
2023/04/15 02:34:13;;;;;;;2.43;1.10;;;8.20;34.50;;;;;;5030879;28;20199;-71
2023/04/15 02:36:39;;;;;;;2.50;1.20;;;8.40;33.70;;;;;;5016507;28;20204;-71
2023/04/15 02:39:05;;;;;;;2.55;1.30;;;8.10;35.50;;;;;;5028300;28;20200;-72
2023/04/15 02:41:31;;;;;;;2.60;1.30;;;7.90;35.60;;;;;;5024671;28;20189;-71
2023/04/15 02:43:56;;;;;;;2.60;1.33;;;7.90;35.80;;;;;;5034220;28;20466;-71
2023/04/15 02:46:22;;;;;;;2.60;1.40;;;8.10;35.30;;;;;;5034664;28;20283;-71
2023/04/15 02:48:49;;;;;;;2.73;1.47;;;8.00;36.60;;;;;;5030508;28;20670;-72
2023/04/15 02:51:18;;;;;;;2.53;1.20;;;7.90;36.70;;;;;;5032318;28;20183;-71
2023/04/15 02:53:44;;;;;;;2.70;1.33;;;7.90;36.90;;;;;;5034033;28;20185;-71
2023/04/15 02:56:11;;;;;;;2.58;1.10;;;7.80;36.20;;;;;;5034268;28;20763;-72
2023/04/15 02:58:37;;;;;;;2.70;1.30;;;7.70;37.30;;;;;;5032279;28;20192;-71
2023/04/15 03:01:02;;;;;;;3.30;1.70;;;7.70;36.60;;;;;;5033660;28;20177;-71
2023/04/15 03:03:28;;;;;;;2.70;1.13;;;7.60;37.50;;;;;;5025341;28;20173;-71
2023/04/15 03:05:53;;;;;;;3.33;1.87;;;7.70;36.80;;;;;;5033827;28;20173;-71
2023/04/15 03:08:22;;;;;;;2.63;1.17;;;7.80;36.20;;;;;;5033964;28;20192;-71
2023/04/15 03:10:48;;;;;;;2.88;1.30;;;7.60;36.40;;;;;;5033143;28;20177;-72
2023/04/15 03:13:13;;;;;;;2.80;1.30;;;7.50;37.00;;;;;;5032971;28;20243;-71
2023/04/15 03:15:39;;;;;;;2.63;1.10;;;7.50;37.60;;;;;;5033694;28;20181;-71
2023/04/15 03:18:05;;;;;;;3.63;2.00;;;7.50;37.10;;;;;;5033841;28;20215;-72
2023/04/15 03:20:30;;;;;;;2.80;1.30;;;7.30;38.10;;;;;;5030972;28;20595;-69
2023/04/15 03:22:56;;;;;;;2.90;1.30;;;7.40;37.90;;;;;;5031859;28;20435;-71
2023/04/15 03:25:22;;;;;;;3.30;1.70;;;7.40;37.10;;;;;;5033785;28;20180;-71
2023/04/15 03:27:47;;;;;;;2.77;1.20;;;7.40;37.60;;;;;;5033576;28;20204;-71
2023/04/15 03:30:13;;;;;;;2.80;1.20;;;7.40;36.90;;;;;;5032759;28;20267;-71
2023/04/15 03:32:39;;;;;;;2.83;1.20;;;7.40;37.20;;;;;;5032842;28;20188;-71
2023/04/15 03:35:05;;;;;;;2.87;1.20;;;7.50;37.20;;;;;;5031709;28;20189;-71
2023/04/15 03:37:31;;;;;;;2.97;1.40;;;7.60;36.00;;;;;;5032424;28;20559;-71
2023/04/15 03:39:56;;;;;;;2.87;1.20;;;7.60;35.80;;;;;;5032447;28;20674;-72
2023/04/15 03:42:22;;;;;;;2.90;1.30;;;7.50;36.70;;;;;;5032993;28;20184;-71
2023/04/15 03:44:47;;;;;;;4.10;1.67;;;7.50;36.40;;;;;;5032220;28;20230;-71
2023/04/15 03:47:13;;;;;;;2.93;1.27;;;7.50;36.90;;;;;;5033355;28;20193;-72
2023/04/15 03:49:39;;;;;;;2.87;1.10;;;7.40;37.10;;;;;;5029879;28;20185;-72
2023/04/15 03:52:05;;;;;;;2.90;1.20;;;7.50;36.10;;;;;;5032165;28;20212;-72
2023/04/15 03:54:30;;;;;;;2.90;1.20;;;7.60;35.40;;;;;;5031985;28;20656;-71
2023/04/15 03:56:56;;;;;;;2.90;1.10;;;7.60;34.90;;;;;;5032431;28;20498;-71
2023/04/15 03:59:22;;;;;;;2.90;1.20;;;7.70;34.50;;;;;;5032186;28;20200;-72
2023/04/15 04:01:48;;;;;;;2.90;1.10;;;7.70;35.00;;;;;;5033240;28;20427;-72
2023/04/15 04:04:14;;;;;;;2.90;1.20;;;7.70;35.30;;;;;;5032534;28;20177;-71
2023/04/15 04:06:39;;;;;;;2.90;1.27;;;7.70;34.30;;;;;;5030522;28;20296;-72
2023/04/15 04:09:05;;;;;;;2.83;1.13;;;7.80;34.90;;;;;;5031585;28;20181;-72
2023/04/15 04:11:31;;;;;;;2.80;1.10;;;7.60;34.70;;;;;;5032731;28;20181;-73
2023/04/15 04:13:57;;;;;;;2.90;1.20;;;7.60;35.20;;;;;;5032360;28;20212;-71
2023/04/15 04:16:23;;;;;;;3.00;1.37;;;7.40;37.00;;;;;;5032577;28;20239;-71
2023/04/15 04:18:49;;;;;;;3.00;1.30;;;7.40;37.20;;;;;;5032022;28;20587;-72
2023/04/15 04:21:15;;;;;;;2.93;1.30;;;7.20;37.00;;;;;;5032259;28;20177;-71
2023/04/15 04:23:40;;;;;;;3.87;1.30;;;7.20;37.10;;;;;;5032441;28;20187;-71
2023/04/15 04:26:06;;;;;;;2.90;1.20;;;7.20;36.90;;;;;;5032583;28;20817;-71
2023/04/15 04:28:34;;;;;;;2.85;1.10;;;7.20;37.80;;;;;;5035530;28;20176;-72
2023/04/15 04:30:59;;;;;;;3.00;1.50;;;7.30;36.90;;;;;;5032350;28;20204;-71
2023/04/15 04:33:25;;;;;;;2.97;1.27;;;7.20;37.30;;;;;;5031563;28;20183;-70
2023/04/15 04:35:50;;;;;;;2.90;1.10;;;7.20;37.60;;;;;;5030485;28;20246;-71
2023/04/15 04:38:16;;;;;;;2.93;1.20;;;7.00;37.60;;;;;;5028757;28;20181;-71
2023/04/15 04:40:42;;;;;;;2.97;1.20;;;7.10;37.70;;;;;;5032143;28;20227;-71
2023/04/15 04:43:08;;;;;;;3.00;1.20;;;7.10;36.40;;;;;;5031858;28;20176;-71
2023/04/15 04:45:33;;;;;;;3.00;1.30;;;7.50;36.00;;;;;;5032644;28;20203;-71
2023/04/15 04:47:59;;;;;;;2.90;1.20;;;7.40;36.60;;;;;;5031696;28;20232;-71
2023/04/15 04:50:25;;;;;;;3.00;1.20;;;7.30;36.70;;;;;;5032235;28;20223;-72
2023/04/15 04:52:50;;;;;;;5.13;1.73;;;6.90;36.30;;;;;;5031186;28;20622;-72
2023/04/15 04:55:16;;;;;;;3.30;1.40;;;7.40;36.40;;;;;;5032058;28;20660;-72
2023/04/15 04:57:42;;;;;;;3.10;1.40;;;7.40;36.30;;;;;;5031411;28;20212;-72
2023/04/15 05:00:08;;;;;;;2.93;1.10;;;7.20;36.30;;;;;;5032311;28;20738;-71
2023/04/15 05:02:34;;;;;;;3.30;1.45;;;7.10;37.30;;;;;;5021544;28;20213;-71
2023/04/15 05:05:00;;;;;;;2.90;1.10;;;7.00;37.90;;;;;;5031809;28;20648;-72
2023/04/15 05:07:26;;;;;;;3.00;1.33;;;6.90;37.20;;;;;;5031813;28;20204;-71
2023/04/15 05:09:51;;;;;;;2.90;1.20;;;6.90;38.40;;;;;;5031598;28;20177;-72
2023/04/15 05:12:17;;;;;;;2.90;1.10;;;7.10;38.10;;;;;;5028711;28;20443;-72
2023/04/15 05:14:43;;;;;;;3.10;1.30;;;7.30;37.70;;;;;;5022898;28;20189;-71
2023/04/15 05:17:10;;;;;;;3.10;1.43;;;7.30;37.20;;;;;;5021092;28;20208;-71
2023/04/15 05:19:35;;;;;;;3.00;1.20;;;7.50;38.20;;;;;;5031485;28;20559;-72
2023/04/15 05:22:01;;;;;;;2.90;1.20;;;7.30;38.00;;;;;;5022433;28;20177;-71
2023/04/15 05:24:27;;;;;;;3.00;1.30;;;7.30;38.70;;;;;;5029907;28;20699;-71
2023/04/15 05:26:52;;;;;;;2.90;1.20;;;7.30;38.30;;;;;;5031730;28;20201;-71
2023/04/15 05:29:18;;;;;;;2.87;1.13;;;7.50;38.70;;;;;;5031518;28;20563;-72
2023/04/15 05:31:43;;;;;;;2.90;1.20;;;7.50;37.60;;;;;;5032122;28;20185;-71
2023/04/15 05:34:10;;;;;;;4.80;1.50;;;7.50;38.60;;;;;;5031638;28;20192;-71
2023/04/15 05:36:36;;;;;;;2.88;1.25;;;7.60;37.60;;;;;;5031699;28;20668;-72
2023/04/15 05:39:03;;;;;;;2.80;1.10;;;7.80;37.60;;;;;;5032031;28;20246;-72
2023/04/15 05:41:28;;;;;;;2.90;1.20;;;7.80;37.20;;;;;;5031945;28;20611;-71
2023/04/15 05:43:54;;;;;;;3.00;1.30;;;8.00;37.10;;;;;;5031505;28;20240;-72
2023/04/15 05:46:20;;;;;;;3.93;1.83;;;8.10;36.80;;;;;;5024742;28;20226;-72
2023/04/15 05:48:45;;;;;;;2.87;1.10;;;8.20;36.50;;;;;;5030821;28;20184;-71
2023/04/15 05:51:11;;;;;;;2.90;1.10;;;8.20;35.70;;;;;;5030939;28;20184;-71
2023/04/15 05:53:36;;;;;;;3.00;1.20;;;8.30;35.50;;;;;;5030932;28;20207;-71
2023/04/15 05:58:29;;;;;;;3.00;1.20;;;8.60;35.20;;;;;;5047612;22;20225;-68
2023/04/15 06:00:55;;;;;;;3.10;1.20;;;11.00;35.70;;;;;;5029255;28;20749;-68
2023/04/15 06:03:21;;;;;;;3.60;1.40;;;9.40;35.10;;;;;;5028001;28;20173;-68
2023/04/15 06:05:47;;;;;;;3.20;1.20;;;8.90;34.40;;;;;;5026320;28;20182;-68
2023/04/15 06:08:13;;;;;;;3.07;1.17;;;8.60;34.60;;;;;;5009624;28;20193;-68
2023/04/15 06:10:38;;;;;;;3.00;1.10;;;8.50;36.00;;;;;;5010209;28;20192;-68
2023/04/15 06:13:04;;;;;;;3.10;1.27;;;8.50;34.90;;;;;;5008784;28;20663;-67
2023/04/15 06:15:30;;;;;;;3.03;1.17;;;8.30;35.20;;;;;;5010358;28;20242;-74
2023/04/15 06:17:56;;;;;;;3.15;1.27;;;8.20;36.60;;;;;;5014819;28;20448;-75
2023/04/15 06:20:22;;;;;;;3.93;1.70;;;8.40;36.80;;;;;;5016206;28;20192;-74
2023/04/15 06:22:48;;;;;;;3.10;1.30;;;8.00;36.60;;;;;;5012010;28;20179;-74
2023/04/15 06:25:14;;;;;;;3.20;1.30;;;7.90;37.60;;;;;;5015698;28;20259;-75
2023/04/15 06:27:40;;;;;;;3.40;1.30;;;8.00;36.60;;;;;;5014908;28;20201;-68
2023/04/15 06:30:06;;;;;;;3.00;1.10;;;8.20;36.50;;;;;;5013689;28;20189;-68
2023/04/15 06:32:32;;;;;;;3.10;1.40;;;8.30;36.40;;;;;;5010976;28;20185;-68
2023/04/15 06:34:58;;;;;;;3.00;1.20;;;7.90;36.50;;;;;;5016766;28;20206;-68
2023/04/15 06:37:24;;;;;;;3.17;1.47;;;7.90;37.10;;;;;;5016483;28;20913;-66
2023/04/15 06:39:50;;;;;;;3.47;1.60;;;7.80;37.90;;;;;;5014258;28;20288;-66
2023/04/15 06:42:16;;;;;;;2.90;1.20;;;8.40;36.50;;;;;;5015830;28;20170;-66
2023/04/15 06:44:41;;;;;;;2.80;1.20;;;8.60;35.30;;;;;;5015205;28;20190;-67
2023/04/15 06:47:07;;;;;;;2.77;1.20;;;8.70;35.40;;;;;;5014819;28;20760;-69
2023/04/15 06:49:33;;;;;;;2.67;1.10;;;8.70;35.30;;;;;;5013341;28;20215;-66
2023/04/15 06:52:00;;;;;;;2.77;1.30;;;8.90;34.00;;;;;;5017723;28;20181;-67
2023/04/15 06:54:26;;;;;;;2.60;1.10;;;9.20;35.50;;;;;;5006843;28;20433;-67
2023/04/15 06:56:52;;;;;;;2.67;1.23;;;9.20;34.00;;;;;;5015046;28;20231;-67
2023/04/15 06:59:17;;;;;;;2.80;1.47;;;9.00;34.50;;;;;;5011849;28;20452;-68
2023/04/15 07:01:43;;;;;;;3.20;1.60;;;9.50;34.60;;;;;;5013355;28;20679;-67
2023/04/15 07:04:09;;;;;;;2.70;1.33;;;9.80;33.20;;;;;;5014719;28;20505;-66
2023/04/15 07:06:35;;;;;;;2.60;1.25;;;10.00;31.50;;;;;;5011520;28;20197;-67
2023/04/15 07:09:03;;;;;;;2.50;1.20;;;10.30;30.00;;;;;;5010021;28;20187;-66
2023/04/15 07:11:29;;;;;;;2.40;1.10;;;10.40;30.10;;;;;;5010289;28;20172;-67
2023/04/15 07:13:56;;;;;;;2.50;1.30;;;10.50;30.30;;;;;;5009768;28;20188;-67
2023/04/15 07:16:22;;;;;;;2.30;1.10;;;10.60;30.30;;;;;;5014128;28;20212;-67
2023/04/15 07:18:48;;;;;;;3.13;1.73;;;10.80;29.90;;;;;;5012266;28;20235;-67
2023/04/15 07:21:13;;;;;;;2.50;1.33;;;10.80;29.80;;;;;;5012579;28;20176;-67
2023/04/15 07:23:39;;;;;;;2.40;1.30;;;11.00;30.10;;;;;;5012944;28;20263;-67
2023/04/15 07:26:05;;;;;;;2.30;1.30;;;11.10;29.70;;;;;;5014143;28;20227;-67
2023/04/15 07:28:30;;;;;;;2.40;1.30;;;11.00;29.40;;;;;;5014688;28;20547;-68
2023/04/15 07:30:56;;;;;;;2.30;1.30;;;11.00;30.70;;;;;;5012728;28;20172;-68
2023/04/15 07:33:22;;;;;;;2.00;1.10;;;11.10;29.60;;;;;;5010693;28;20177;-66
2023/04/15 07:35:48;;;;;;;2.00;1.17;;;11.40;29.70;;;;;;5009287;28;20177;-65
2023/04/15 07:38:14;;;;;;;2.37;1.43;;;11.50;29.00;;;;;;5010704;28;20193;-66
2023/04/15 07:40:41;;;;;;;2.20;1.30;;;11.60;29.20;;;;;;5013468;28;20799;-67
2023/04/15 07:43:07;;;;;;;4.10;1.50;;;11.60;30.40;;;;;;5012683;28;20175;-67
2023/04/15 07:45:34;;;;;;;1.90;1.10;;;11.80;29.00;;;;;;5005371;28;20453;-66
2023/04/15 07:48:01;;;;;;;2.93;1.30;;;11.60;29.70;;;;;;5012194;28;20455;-67
2023/04/15 07:50:27;;;;;;;2.27;1.43;;;12.30;28.80;;;;;;5014104;28;20491;-67
2023/04/15 07:52:53;;;;;;;2.93;1.37;;;12.70;29.30;;;;;;5008330;28;20432;-67
2023/04/15 07:55:20;;;;;;;1.93;1.27;;;12.40;28.00;;;;;;5010051;28;20432;-66
2023/04/15 07:57:46;;;;;;;1.83;1.17;;;12.60;27.50;;;;;;5013370;28;20236;-67
2023/04/15 08:00:12;;;;;;;1.90;1.20;;;12.90;27.40;;;;;;5013312;28;20491;-67
2023/04/15 08:02:38;;;;;;;1.90;1.27;;;13.20;27.00;;;;;;5013390;28;20181;-67
2023/04/15 08:05:06;;;;;;;1.80;1.20;;;12.80;27.80;;;;;;5010553;28;20428;-67
2023/04/15 08:07:31;;;;;;;1.90;1.30;;;12.90;26.70;;;;;;5013347;28;20424;-67
2023/04/15 08:09:57;;;;;;;1.90;1.37;;;12.60;27.20;;;;;;5013942;28;20431;-67
2023/04/15 08:12:22;;;;;;;2.13;1.47;;;12.80;29.10;;;;;;5011508;28;20239;-67
2023/04/15 08:14:50;;;;;;;1.87;1.23;;;13.10;26.70;;;;;;5010529;28;20189;-66
2023/04/15 08:17:15;;;;;;;2.00;1.30;;;13.20;26.40;;;;;;5012868;28;20304;-67
2023/04/15 08:19:41;;;;;;;1.90;1.40;;;13.50;26.40;;;;;;5012410;28;20979;-66
2023/04/15 08:22:07;;;;;;;1.90;1.30;;;14.30;26.10;;;;;;5011323;28;20182;-67
2023/04/15 08:24:33;;;;;;;1.90;1.23;;;14.20;25.90;;;;;;5011491;28;20530;-67
2023/04/15 08:27:00;;;;;;;1.90;1.20;;;13.80;24.90;;;;;;5011863;28;20241;-67
2023/04/15 08:29:26;;;;;;;2.30;1.70;;;13.90;25.20;;;;;;5011121;28;20203;-67
2023/04/15 08:31:52;;;;;;;1.80;1.10;;;13.50;25.40;;;;;;5012348;28;20508;-67
2023/04/15 08:34:18;;;;;;;2.00;1.30;;;14.10;25.30;;;;;;5012770;28;20789;-67
2023/04/15 08:36:44;;;;;;;2.40;1.70;;;13.90;25.40;;;;;;5013184;28;20429;-67
2023/04/15 08:39:10;;;;;;;2.30;1.63;;;14.20;26.40;;;;;;5010351;28;20459;-68
2023/04/15 08:41:47;;;;;;;1.83;1.10;;;14.60;25.10;;;;;;5011673;28;20274;-68
2023/04/15 08:44:13;;;;;;;1.80;1.20;;;14.50;24.90;;;;;;5012944;28;20450;-67
2023/04/15 08:46:41;;;;;;;2.13;1.40;;;14.90;25.10;;;;;;5012967;28;20502;-67
2023/04/15 08:49:14;;;;;;;2.10;1.40;;;15.30;24.30;;;;;;5012373;28;20531;-67
2023/04/15 08:51:40;;;;;;;1.90;1.20;;;15.60;23.30;;;;;;5006073;28;20444;-67
2023/04/15 08:54:07;;;;;;;1.87;1.13;;;15.20;24.70;;;;;;5007917;28;20436;-67
2023/04/15 08:56:34;;;;;;;3.40;1.70;;;15.40;23.90;;;;;;5010907;28;20982;-67
2023/04/15 08:59:01;;;;;;;2.00;1.30;;;16.10;24.80;;;;;;5006717;28;20492;-67
2023/04/15 09:01:26;;;;;;;1.90;1.20;;;15.40;24.00;;;;;;5009622;28;20970;-67
2023/04/15 09:03:55;;;;;;;2.10;1.40;;;15.90;23.90;;;;;;5004253;28;20418;-68
2023/04/15 09:06:22;;;;;;;1.97;1.30;;;16.50;23.10;;;;;;5012547;28;20183;-67
2023/04/15 09:08:51;;;;;;;2.30;1.30;;;16.30;22.70;;;;;;5012795;28;20868;-68
2023/04/15 09:11:18;;;;;;;2.37;1.60;;;16.80;21.50;;;;;;5011122;28;20421;-68
2023/04/15 09:13:44;;;;;;;1.93;1.20;;;16.90;21.80;;;;;;5002399;28;20420;-68
2023/04/15 09:16:09;;;;;;;1.97;1.30;;;16.90;22.30;;;;;;5012467;28;20408;-68
2023/04/15 09:18:37;;;;;;;1.93;1.30;;;17.00;22.40;;;;;;5012638;28;20420;-67
2023/04/15 09:21:10;;;;;;;2.10;1.40;;;16.50;21.80;;;;;;5011065;28;20255;-67
2023/04/15 09:23:36;;;;;;;2.87;1.50;;;16.90;21.00;;;;;;5007492;28;20523;-68
2023/04/15 09:26:02;;;;;;;5.40;2.03;;;17.50;21.70;;;;;;5007104;28;20417;-68
2023/04/15 09:28:28;;;;;;;2.00;1.30;;;17.60;20.70;;;;;;5012322;28;20424;-67
2023/04/15 09:31:01;;;;;;;2.17;1.50;;;17.40;21.40;;;;;;5012358;28;20470;-67
2023/04/15 09:33:28;;;;;;;1.90;1.30;;;17.30;21.40;;;;;;5011071;28;20429;-67
2023/04/15 09:36:02;;;;;;;2.00;1.40;;;16.70;21.20;;;;;;5003445;28;20991;-68
2023/04/15 09:38:28;;;;;;;2.10;1.40;;;17.50;21.10;;;;;;5012300;28;20432;-68
2023/04/15 09:40:54;;;;;;;1.90;1.20;;;18.00;21.20;;;;;;5012058;28;20524;-67
2023/04/15 09:43:20;;;;;;;2.20;1.40;;;17.90;19.90;;;;;;5012314;28;20415;-67
2023/04/15 09:45:48;;;;;;;1.80;1.20;;;16.50;22.90;;;;;;5012005;28;20165;-67
2023/04/15 09:48:25;;;;;;;2.00;1.33;;;16.20;23.90;;;;;;5009162;28;20813;-68
2023/04/15 09:50:52;;;;;;;2.20;1.40;;;17.20;21.30;;;;;;5003482;28;20434;-67
2023/04/15 09:53:20;;;;;;;2.00;1.30;;;17.20;20.00;;;;;;5011721;28;20410;-67
2023/04/15 09:55:57;;;;;;;5.80;1.60;;;16.70;20.80;;;;;;5010727;28;20796;-67
2023/04/15 09:58:26;;;;;;;2.20;1.40;;;16.30;22.20;;;;;;5008869;28;20461;-68
2023/04/15 10:00:53;;;;;;;1.93;1.30;;;16.50;21.20;;;;;;5008562;28;20504;-67
2023/04/15 10:03:24;;;;;;;2.13;1.40;;;16.70;21.00;;;;;;5005201;28;20433;-67
2023/04/15 10:05:52;;;;;;;3.40;1.80;;;16.90;20.70;;;;;;5010446;28;20426;-67
2023/04/15 10:08:23;;;;;;;2.20;1.50;;;17.10;21.00;;;;;;5008565;28;21007;-67
2023/04/15 10:10:51;;;;;;;1.97;1.23;;;17.20;20.60;;;;;;5009203;28;20431;-67
2023/04/15 10:13:19;;;;;;;2.00;1.20;;;16.20;19.50;;;;;;5010880;28;20430;-67
2023/04/15 10:15:59;;;;;;;2.00;1.30;;;16.30;18.90;;;;;;5004417;28;20408;-67
2023/04/15 10:18:27;;;;;;;2.13;1.50;;;16.30;19.60;;;;;;5011682;28;20426;-67
2023/04/15 10:20:53;;;;;;;1.90;1.13;;;16.50;19.40;;;;;;5011684;28;20490;-67
2023/04/15 10:23:21;;;;;;;2.13;1.60;;;16.70;18.60;;;;;;5010641;28;20512;-67
2023/04/15 10:25:50;;;;;;;2.40;1.50;;;17.60;18.80;;;;;;5011734;28;20457;-67
2023/04/15 10:28:16;;;;;;;2.20;1.30;;;18.20;17.90;;;;;;5011655;28;20431;-67
2023/04/15 10:30:42;;;;;;;2.27;1.33;;;18.30;18.00;;;;;;5009947;28;20490;-66
2023/04/15 10:33:10;;;;;;;2.20;1.30;;;17.20;18.60;;;;;;5001972;28;20443;-69
2023/04/15 10:35:36;;;;;;;2.20;1.20;;;17.20;18.90;;;;;;5011199;28;20503;-69
2023/04/15 10:38:02;;;;;;;2.37;1.50;;;17.30;18.50;;;;;;5012471;28;20478;-69
2023/04/15 10:40:32;;;;;;;2.47;1.50;;;18.20;19.30;;;;;;5012362;28;20483;-69
2023/04/15 10:42:59;;;;;;;2.80;1.40;;;18.40;18.00;;;;;;5011393;28;20443;-69
2023/04/15 10:45:27;;;;;;;2.40;1.30;;;18.30;17.70;;;;;;5007939;28;20795;-69
2023/04/15 10:47:57;;;;;;;2.50;1.40;;;18.40;19.00;;;;;;4999990;28;20451;-68
2023/04/15 10:50:25;;;;;;;2.43;1.37;;;19.00;17.00;;;;;;5003842;28;20412;-69
2023/04/15 10:52:51;;;;;;;2.70;1.60;;;18.60;16.70;;;;;;5011487;28;20420;-69
2023/04/15 10:55:35;;;;;;;3.20;1.60;;;19.40;17.60;;;;;;5012057;28;20443;-69
2023/04/15 10:58:01;;;;;;;2.70;1.60;;;18.60;16.40;;;;;;5011636;28;20489;-69
2023/04/15 11:00:29;;;;;;;2.40;1.40;;;17.60;18.20;;;;;;5006786;28;20847;-69
2023/04/15 11:03:08;;;;;;;2.27;1.30;;;17.50;17.60;;;;;;5009015;28;20416;-69
2023/04/15 11:05:49;;;;;;;2.40;1.40;;;17.00;18.40;;;;;;5015209;28;20429;-69
2023/04/15 11:08:15;;;;;;;2.30;1.30;;;17.20;18.10;;;;;;5015006;28;20427;-69
2023/04/15 11:10:40;;;;;;;2.30;1.50;;;17.20;18.60;;;;;;5015179;28;20911;-69
2023/04/15 11:13:15;;;;;;;2.20;1.20;;;16.60;18.40;;;;;;5005766;28;20513;-69
2023/04/15 11:15:45;;;;;;;3.17;1.57;;;16.40;18.60;;;;;;5007077;28;20551;-69
2023/04/15 11:18:18;;;;;;;4.20;1.80;;;17.50;19.10;;;;;;5014971;28;20431;-69
2023/04/15 11:20:53;;;;;;;3.03;1.67;;;18.80;17.20;;;;;;5015125;28;20455;-69
2023/04/15 11:23:46;;;;;;;2.60;1.40;;;19.50;16.90;;;;;;5015167;28;20780;-69
2023/04/15 11:26:12;;;;;;;3.20;1.53;;;20.40;15.60;;;;;;5012888;28;20418;-69
2023/04/15 11:28:40;;;;;;;3.13;1.23;;;20.30;16.30;;;;;;5014579;28;20415;-69
2023/04/15 11:31:10;;;;;;;2.90;1.40;;;20.90;16.90;;;;;;5014864;28;20717;-69
2023/04/15 11:33:35;;;;;;;3.40;1.50;;;20.90;16.50;;;;;;5005229;28;21159;-69
2023/04/15 11:36:03;;;;;;;3.10;1.20;;;19.50;15.30;;;;;;5014882;28;20430;-69
2023/04/15 11:38:30;;;;;;;2.93;1.20;;;19.20;16.00;;;;;;5014340;28;20204;-68
2023/04/15 11:40:55;;;;;;;3.00;1.33;;;19.30;15.80;;;;;;5014825;28;20587;-69
2023/04/15 11:43:22;;;;;;;3.50;1.73;;;18.90;16.80;;;;;;5014689;28;20404;-69
2023/04/15 11:45:50;;;;;;;3.10;1.30;;;19.30;15.80;;;;;;5014568;28;20173;-69
2023/04/15 11:48:15;;;;;;;3.30;1.40;;;20.20;15.80;;;;;;5005472;28;20489;-69
2023/04/15 11:50:41;;;;;;;3.50;1.57;;;21.90;13.60;;;;;;4994632;28;20440;-69
2023/04/15 11:53:12;;;;;;;3.57;1.43;;;23.10;14.40;;;;;;4994615;28;20177;-69
2023/04/15 11:55:50;;;;;;;3.70;1.60;;;23.80;12.90;;;;;;4994829;28;20712;-69
2023/04/15 11:58:16;;;;;;;3.60;1.53;;;23.90;11.60;;;;;;5045608;23;20490;-73
2023/04/15 12:00:59;;;;;;;4.10;1.87;;;24.20;14.40;;;;;;5028099;28;20465;-73
2023/04/15 12:03:42;;;;;;;4.13;1.57;;;23.90;12.00;;;;;;5028142;28;20431;-73
2023/04/15 12:06:13;;;;;;;3.40;1.30;;;23.10;12.40;;;;;;5023999;28;20478;-73
2023/04/15 12:08:53;;;;;;;4.33;1.57;;;21.60;13.40;;;;;;5027877;28;20845;-73
2023/04/15 12:11:25;;;;;;;4.23;1.70;;;21.10;14.50;;;;;;5022600;28;20439;-70
2023/04/15 12:13:55;;;;;;;3.60;1.30;;;19.90;15.10;;;;;;5026876;28;20428;-73
2023/04/15 12:16:22;;;;;;;3.50;1.60;;;19.40;14.80;;;;;;5030302;28;20922;-72
2023/04/15 12:18:56;;;;;;;3.30;1.47;;;18.60;15.50;;;;;;5030270;28;20454;-73
2023/04/15 12:21:23;;;;;;;3.50;1.30;;;17.30;16.60;;;;;;5030130;28;20503;-73
2023/04/15 12:23:50;;;;;;;3.20;1.37;;;17.30;16.90;;;;;;5028476;28;20494;-73
2023/04/15 12:26:16;;;;;;;3.37;1.50;;;17.10;16.80;;;;;;5030850;28;20521;-69
2023/04/15 12:28:42;;;;;;;3.10;1.37;;;16.80;17.40;;;;;;5025232;28;20478;-73
2023/04/15 12:31:09;;;;;;;3.30;1.53;;;16.90;17.70;;;;;;5031032;28;20469;-72
2023/04/15 12:33:36;;;;;;;2.87;1.20;;;17.60;18.50;;;;;;5027956;28;20192;-73
2023/04/15 12:36:02;;;;;;;2.90;1.20;;;17.90;16.70;;;;;;5027685;28;20462;-73
2023/04/15 12:38:28;;;;;;;3.27;1.47;;;18.60;15.80;;;;;;5028407;28;20956;-73
2023/04/15 12:40:54;;;;;;;3.33;1.57;;;18.80;16.50;;;;;;5031413;28;20466;-73
2023/04/15 12:43:19;;;;;;;3.13;1.40;;;18.70;15.50;;;;;;5031173;28;20438;-72
2023/04/15 12:45:45;;;;;;;3.10;1.30;;;19.00;15.50;;;;;;5029795;28;20180;-73
2023/04/15 12:48:11;;;;;;;3.10;1.40;;;18.70;15.50;;;;;;5031776;28;20657;-72
2023/04/15 12:50:36;;;;;;;3.00;1.20;;;20.10;19.90;;;;;;5031462;28;20482;-72
2023/04/15 12:53:03;;;;;;;4.07;1.60;;;18.70;15.90;;;;;;5032293;28;20652;-73